Time;durP1;ratioP1;P1;durP2;ratioP2;P2;SDS_P1;SDS_P2;PMS_P1;PMS_P2;Temp;Humidity;BMP_temperature;BMP_pressure;BME280_temperature;BME280_humidity;BME280_pressure;Samples;Min_cycle;Max_cycle;Signal;HPM_P1;HPM_P2
2021/01/06 00:01:51;;;;;;;12.67;9.67;;;4.20;99.90;;;;;;5036504;28;20206;-73
2021/01/06 00:04:16;;;;;;;15.43;9.73;;;4.20;99.90;;;;;;5034961;28;20225;-72
2021/01/06 00:06:42;;;;;;;13.50;8.80;;;4.30;99.90;;;;;;5036251;28;20184;-72
2021/01/06 00:09:07;;;;;;;9.93;8.23;;;4.20;99.90;;;;;;5036671;28;20188;-72
2021/01/06 00:11:36;;;;;;;13.57;8.90;;;4.20;99.90;;;;;;5037964;28;20198;-73
2021/01/06 00:14:07;;;;;;;13.43;8.13;;;4.20;99.90;;;;;;5039760;28;20271;-72
2021/01/06 00:16:33;;;;;;;14.20;8.70;;;4.20;99.90;;;;;;5040729;28;20478;-73
2021/01/06 00:18:58;;;;;;;10.40;8.00;;;4.20;99.90;;;;;;5040420;28;20414;-72
2021/01/06 00:21:24;;;;;;;12.77;8.27;;;4.20;99.90;;;;;;5041084;28;20210;-73
2021/01/06 00:23:49;;;;;;;10.20;8.10;;;4.30;99.90;;;;;;5037539;28;20215;-72
2021/01/06 00:26:15;;;;;;;8.73;7.10;;;4.30;99.90;;;;;;5035842;28;20540;-72
2021/01/06 00:28:41;;;;;;;10.97;7.63;;;4.30;99.90;;;;;;5036200;28;20200;-72
2021/01/06 00:31:07;;;;;;;10.23;7.53;;;4.30;99.90;;;;;;5035661;28;20180;-72
2021/01/06 00:33:35;;;;;;;12.40;8.67;;;4.30;99.90;;;;;;5035268;28;20193;-72
2021/01/06 00:36:05;;;;;;;9.80;7.87;;;4.20;99.90;;;;;;5033739;28;20811;-72
2021/01/06 00:38:32;;;;;;;9.30;7.77;;;4.30;99.90;;;;;;5035293;28;20426;-72
2021/01/06 00:40:57;;;;;;;10.13;7.93;;;4.40;99.90;;;;;;5035183;28;20462;-72
2021/01/06 00:43:24;;;;;;;13.10;8.70;;;4.30;99.90;;;;;;5033928;28;20412;-71
2021/01/06 00:45:49;;;;;;;13.03;8.33;;;4.30;99.90;;;;;;5035090;28;20461;-72
2021/01/06 00:48:15;;;;;;;10.23;8.17;;;4.20;99.90;;;;;;5033929;28;20451;-72
2021/01/06 00:50:41;;;;;;;11.47;9.30;;;4.30;99.90;;;;;;5035061;28;20411;-72
2021/01/06 00:53:28;;;;;;;12.30;8.67;;;4.30;99.90;;;;;;5032704;28;20941;-72
2021/01/06 00:55:54;;;;;;;11.00;8.50;;;4.20;99.90;;;;;;5034745;28;20341;-72
2021/01/06 00:58:21;;;;;;;10.60;7.97;;;4.30;99.90;;;;;;5035660;28;20494;-72
2021/01/06 01:00:47;;;;;;;12.87;8.30;;;4.40;99.90;;;;;;5034674;28;20471;-72
2021/01/06 01:03:13;;;;;;;11.40;8.93;;;4.50;99.90;;;;;;5035518;28;20506;-72
2021/01/06 01:05:39;;;;;;;13.40;8.80;;;4.50;99.90;;;;;;5035047;28;20449;-72
2021/01/06 01:08:07;;;;;;;11.27;7.50;;;4.50;99.90;;;;;;5035425;28;20399;-72
2021/01/06 01:10:54;;;;;;;9.90;7.57;;;4.50;99.90;;;;;;5035004;28;20609;-73
2021/01/06 01:13:22;;;;;;;9.17;7.70;;;4.60;99.90;;;;;;5034830;28;20782;-73
2021/01/06 01:15:51;;;;;;;11.00;8.10;;;4.60;99.90;;;;;;5034952;28;20564;-72
2021/01/06 01:18:21;;;;;;;10.57;8.27;;;4.50;99.90;;;;;;5035151;28;20401;-73
2021/01/06 01:20:49;;;;;;;10.63;8.10;;;4.50;99.90;;;;;;5035116;28;20524;-72
2021/01/06 01:23:17;;;;;;;9.77;8.10;;;4.40;99.90;;;;;;5034627;28;20493;-73
2021/01/06 01:25:43;;;;;;;11.53;8.77;;;4.40;99.90;;;;;;5034354;28;20484;-72
2021/01/06 01:28:11;;;;;;;10.03;7.23;;;4.40;99.90;;;;;;5034512;28;20958;-73
2021/01/06 01:30:37;;;;;;;10.83;7.70;;;4.50;99.90;;;;;;5034894;28;20902;-72
2021/01/06 01:33:03;;;;;;;8.93;7.50;;;4.50;99.90;;;;;;5034446;28;20428;-72
2021/01/06 01:35:30;;;;;;;10.03;8.13;;;4.50;99.90;;;;;;5033965;28;20741;-72
2021/01/06 01:37:57;;;;;;;11.43;8.23;;;4.50;99.90;;;;;;5034786;28;20635;-72
2021/01/06 01:40:40;;;;;;;10.17;7.87;;;4.50;99.90;;;;;;5034519;28;20541;-72
2021/01/06 01:43:12;;;;;;;11.43;7.73;;;4.60;99.90;;;;;;5034627;28;20400;-73
2021/01/06 01:46:00;;;;;;;12.20;9.10;;;4.60;99.90;;;;;;5034568;28;20579;-72
2021/01/06 01:48:46;;;;;;;8.83;6.90;;;4.60;99.90;;;;;;5034370;28;20480;-72
2021/01/06 01:51:30;;;;;;;10.63;8.23;;;4.70;99.90;;;;;;5034664;28;20422;-71
2021/01/06 01:54:05;;;;;;;11.30;8.00;;;4.60;99.90;;;;;;5034362;28;20455;-71
2021/01/06 01:56:37;;;;;;;13.43;8.57;;;4.70;99.90;;;;;;5034732;28;20425;-71
2021/01/06 01:59:06;;;;;;;9.97;7.60;;;4.60;99.90;;;;;;5034157;28;20418;-71
2021/01/06 02:01:32;;;;;;;9.93;7.90;;;4.60;99.90;;;;;;5034385;28;20455;-72
2021/01/06 02:04:05;;;;;;;10.97;8.37;;;4.60;99.90;;;;;;5034294;28;20521;-72
2021/01/06 02:06:36;;;;;;;11.10;8.23;;;4.60;99.90;;;;;;5033914;28;20183;-72
2021/01/06 02:09:11;;;;;;;10.67;7.73;;;4.60;99.90;;;;;;5033256;28;20426;-72
2021/01/06 02:11:41;;;;;;;11.53;7.87;;;4.60;99.90;;;;;;5034036;28;20416;-72
2021/01/06 02:14:24;;;;;;;10.70;7.90;;;4.60;99.90;;;;;;5034106;28;20481;-72
2021/01/06 02:17:01;;;;;;;11.47;8.57;;;4.60;99.90;;;;;;5034654;28;20428;-72
2021/01/06 02:19:37;;;;;;;10.07;7.50;;;4.70;99.90;;;;;;5034467;28;20410;-72
2021/01/06 02:22:04;;;;;;;10.37;8.37;;;4.60;99.90;;;;;;5034446;28;20450;-75
2021/01/06 02:24:30;;;;;;;11.40;7.90;;;4.60;99.90;;;;;;5042418;28;20953;-72
2021/01/06 02:26:56;;;;;;;9.53;8.10;;;4.70;99.90;;;;;;5034197;28;20463;-72
2021/01/06 02:29:22;;;;;;;11.33;8.27;;;4.70;99.90;;;;;;5033002;28;20175;-72
2021/01/06 02:31:48;;;;;;;11.33;8.30;;;4.70;99.90;;;;;;5034335;28;20174;-72
2021/01/06 02:34:14;;;;;;;12.60;8.00;;;4.70;99.90;;;;;;5033626;28;20502;-74
2021/01/06 02:36:40;;;;;;;11.33;7.47;;;4.70;99.90;;;;;;5034099;28;20908;-73
2021/01/06 02:39:08;;;;;;;9.20;7.10;;;4.70;99.90;;;;;;5034048;28;20268;-72
2021/01/06 02:41:33;;;;;;;9.93;7.83;;;4.80;99.90;;;;;;5034361;28;20935;-72
2021/01/06 02:43:59;;;;;;;11.50;8.03;;;4.70;99.90;;;;;;5034072;28;20413;-72
2021/01/06 02:46:25;;;;;;;11.10;7.70;;;4.70;99.90;;;;;;5034897;28;20269;-72
2021/01/06 02:48:50;;;;;;;12.00;8.10;;;4.70;99.90;;;;;;5042625;28;20240;-72
2021/01/06 02:51:37;;;;;;;10.07;7.77;;;4.60;99.90;;;;;;5034192;28;20591;-73
2021/01/06 02:54:06;;;;;;;10.00;7.50;;;4.50;99.90;;;;;;5032616;28;20159;-72
2021/01/06 02:56:32;;;;;;;11.10;7.60;;;4.50;99.90;;;;;;5034069;28;20422;-72
2021/01/06 02:59:01;;;;;;;11.47;7.87;;;4.50;99.90;;;;;;5033920;28;20444;-72
2021/01/06 03:01:29;;;;;;;10.23;7.43;;;4.50;99.90;;;;;;5033807;28;20555;-72
2021/01/06 03:03:56;;;;;;;13.20;8.90;;;4.60;99.90;;;;;;5033510;28;20435;-72
2021/01/06 03:06:38;;;;;;;10.37;8.10;;;4.60;99.90;;;;;;5033790;28;20431;-72
2021/01/06 03:09:06;;;;;;;12.40;8.70;;;4.70;99.90;;;;;;5033495;28;20415;-72
2021/01/06 03:11:32;;;;;;;13.20;8.73;;;4.70;99.90;;;;;;5033868;28;20408;-72
2021/01/06 03:13:57;;;;;;;11.23;8.50;;;4.70;99.90;;;;;;5033095;28;20415;-72
2021/01/06 03:16:23;;;;;;;11.40;8.47;;;4.80;99.90;;;;;;5033827;28;20194;-73
2021/01/06 03:18:48;;;;;;;12.83;9.47;;;4.80;99.90;;;;;;5033103;28;20506;-73
2021/01/06 03:21:15;;;;;;;9.30;7.90;;;4.80;99.90;;;;;;5033662;28;20228;-72
2021/01/06 03:23:52;;;;;;;10.43;7.47;;;4.90;99.90;;;;;;5033508;28;20172;-72
2021/01/06 03:26:20;;;;;;;11.60;8.33;;;4.90;99.90;;;;;;5037304;28;20409;-73
2021/01/06 03:28:48;;;;;;;12.40;8.90;;;4.80;99.90;;;;;;5037106;28;20452;-72
2021/01/06 03:31:21;;;;;;;12.60;8.70;;;4.80;99.90;;;;;;5037168;28;20471;-72
2021/01/06 03:34:15;;;;;;;12.60;8.83;;;4.80;99.90;;;;;;5037104;28;20428;-72
2021/01/06 03:36:44;;;;;;;12.67;7.83;;;4.80;99.90;;;;;;5037345;28;20905;-72
2021/01/06 03:39:18;;;;;;;10.90;8.30;;;4.90;99.90;;;;;;5037506;28;20435;-72
2021/01/06 03:41:44;;;;;;;10.57;7.63;;;4.90;99.90;;;;;;5037222;28;20459;-72
2021/01/06 03:44:11;;;;;;;10.53;7.60;;;4.80;99.90;;;;;;5036404;28;20496;-73
2021/01/06 03:46:43;;;;;;;8.17;6.93;;;4.90;99.90;;;;;;5037457;28;20985;-74
2021/01/06 03:49:35;;;;;;;10.33;7.27;;;4.90;99.90;;;;;;5043643;28;20440;-73
2021/01/06 03:52:08;;;;;;;8.13;6.30;;;4.90;99.90;;;;;;5043480;28;20411;-73
2021/01/06 03:54:48;;;;;;;9.43;6.67;;;4.90;99.90;;;;;;5037790;28;20418;-72
2021/01/06 03:57:14;;;;;;;7.60;5.63;;;4.90;99.90;;;;;;5048125;28;20473;-73
2021/01/06 03:59:45;;;;;;;8.77;6.20;;;4.80;99.90;;;;;;5046051;28;20470;-73
2021/01/06 04:02:39;;;;;;;6.80;5.90;;;4.70;99.90;;;;;;5038195;28;20487;-72
2021/01/06 04:05:16;;;;;;;7.90;5.80;;;4.70;99.90;;;;;;5032590;28;20427;-72
2021/01/06 04:07:41;;;;;;;8.43;6.20;;;4.70;99.90;;;;;;5036558;28;20503;-72
2021/01/06 04:10:12;;;;;;;8.10;5.43;;;4.70;99.90;;;;;;5036734;28;20452;-72
2021/01/06 04:12:37;;;;;;;8.73;7.00;;;4.70;99.90;;;;;;5036611;28;20180;-72
2021/01/06 04:15:05;;;;;;;8.57;6.27;;;4.60;99.90;;;;;;5035052;28;20472;-72
2021/01/06 04:17:33;;;;;;;6.23;5.60;;;4.60;99.90;;;;;;5036381;28;20265;-72
2021/01/06 04:20:09;;;;;;;9.27;7.27;;;4.70;99.90;;;;;;5036406;28;20433;-72
2021/01/06 04:22:48;;;;;;;7.93;6.40;;;4.70;99.90;;;;;;5036244;28;20411;-72
2021/01/06 04:25:36;;;;;;;6.87;6.00;;;4.70;99.90;;;;;;5035521;28;20495;-72
2021/01/06 04:28:07;;;;;;;10.33;7.60;;;4.60;99.90;;;;;;5036440;28;20455;-72
2021/01/06 04:30:45;;;;;;;10.30;7.33;;;4.50;99.90;;;;;;5036414;28;20429;-72
2021/01/06 04:33:17;;;;;;;9.03;6.60;;;4.50;99.90;;;;;;5035738;28;20442;-72
2021/01/06 04:35:42;;;;;;;13.70;9.30;;;4.50;99.90;;;;;;5034712;28;20500;-72
2021/01/06 04:38:13;;;;;;;10.53;7.83;;;4.60;99.90;;;;;;5035665;28;20426;-72
2021/01/06 04:40:41;;;;;;;10.77;7.50;;;4.50;99.90;;;;;;5033663;28;20225;-72
2021/01/06 04:43:37;;;;;;;9.63;7.90;;;4.40;99.90;;;;;;5034183;28;20423;-73
2021/01/06 04:46:24;;;;;;;10.53;7.60;;;4.50;99.90;;;;;;5033218;28;20429;-72
2021/01/06 04:49:27;;;;;;;10.07;7.23;;;4.50;99.90;;;;;;5034844;28;20420;-73
2021/01/06 04:52:17;;;;;;;9.90;7.47;;;4.50;99.90;;;;;;5035477;28;20466;-72
2021/01/06 04:55:13;;;;;;;10.47;7.00;;;4.60;99.90;;;;;;5035562;28;20432;-73
2021/01/06 04:57:52;;;;;;;11.27;7.83;;;4.60;99.90;;;;;;5027185;28;20505;-72
2021/01/06 05:00:43;;;;;;;10.80;7.70;;;4.60;99.90;;;;;;5026323;28;20479;-72
2021/01/06 05:03:29;;;;;;;11.00;8.37;;;4.60;99.90;;;;;;5034398;28;20814;-73
2021/01/06 05:06:13;;;;;;;9.67;7.67;;;4.60;99.90;;;;;;5033809;28;20436;-72
2021/01/06 05:08:45;;;;;;;10.73;8.20;;;4.70;99.90;;;;;;5035428;28;20406;-73
2021/01/06 05:11:32;;;;;;;8.67;6.63;;;4.70;99.90;;;;;;5035093;28;20421;-73
2021/01/06 05:14:08;;;;;;;9.27;7.30;;;4.80;99.90;;;;;;5034970;28;20424;-73
2021/01/06 05:16:37;;;;;;;10.63;7.80;;;4.80;99.90;;;;;;5035061;28;20428;-73
2021/01/06 05:19:06;;;;;;;9.23;7.30;;;4.80;99.90;;;;;;5035502;28;20903;-72
2021/01/06 05:21:32;;;;;;;8.43;7.47;;;4.80;99.90;;;;;;5034881;28;20455;-73
2021/01/06 05:24:23;;;;;;;11.53;7.87;;;4.80;99.90;;;;;;5034815;28;20417;-73
2021/01/06 05:27:14;;;;;;;12.10;8.17;;;4.80;99.90;;;;;;5034659;28;20453;-72
2021/01/06 05:29:52;;;;;;;9.20;7.73;;;4.80;99.90;;;;;;4974007;28;20463;-73
2021/01/06 05:32:29;;;;;;;9.10;7.60;;;4.80;99.90;;;;;;4973543;28;20423;-72
2021/01/06 05:35:06;;;;;;;12.20;8.40;;;4.80;99.90;;;;;;4973743;28;20443;-73
2021/01/06 05:37:32;;;;;;;9.90;8.60;;;4.80;99.90;;;;;;4974281;28;20426;-73
2021/01/06 05:40:04;;;;;;;11.20;8.40;;;4.80;99.90;;;;;;4974351;28;20506;-73
2021/01/06 05:42:34;;;;;;;9.47;8.00;;;4.80;99.90;;;;;;4979870;28;20465;-73
2021/01/06 05:45:03;;;;;;;8.00;6.93;;;4.80;99.90;;;;;;4973370;28;20448;-73
2021/01/06 05:47:32;;;;;;;10.30;8.53;;;4.80;99.90;;;;;;4972965;28;20999;-73
2021/01/06 05:50:03;;;;;;;9.13;7.20;;;4.90;99.90;;;;;;4973316;28;20481;-73
2021/01/06 05:52:31;;;;;;;7.87;6.80;;;4.90;99.90;;;;;;4954410;28;20421;-73
2021/01/06 05:55:01;;;;;;;9.37;8.07;;;4.80;99.90;;;;;;4954246;28;20425;-73
2021/01/06 05:57:50;;;;;;;9.87;8.83;;;4.80;99.90;;;;;;4968594;28;20823;-72
2021/01/06 06:00:37;;;;;;;8.47;7.27;;;4.80;99.90;;;;;;4972782;28;20409;-73
2021/01/06 06:03:30;;;;;;;10.13;8.20;;;4.70;99.90;;;;;;4958138;28;20442;-73
2021/01/06 06:05:59;;;;;;;10.83;7.57;;;4.70;99.90;;;;;;4991149;28;20508;-73
2021/01/06 06:08:50;;;;;;;8.73;7.67;;;4.80;99.90;;;;;;5039908;28;20436;-73
2021/01/06 06:11:48;;;;;;;9.53;7.50;;;4.80;99.90;;;;;;5034650;28;20835;-73
2021/01/06 06:14:51;;;;;;;8.47;7.40;;;4.70;99.90;;;;;;5013828;28;20504;-72
2021/01/06 06:17:44;;;;;;;11.57;8.13;;;4.70;99.90;;;;;;5014398;28;20825;-73
2021/01/06 06:20:53;;;;;;;10.30;7.47;;;4.60;99.90;;;;;;5013961;28;20452;-72
2021/01/06 06:23:28;;;;;;;9.30;8.30;;;4.60;99.90;;;;;;5014241;28;20930;-73
2021/01/06 06:26:22;;;;;;;10.87;8.60;;;4.70;99.90;;;;;;5013517;28;20444;-73
2021/01/06 06:29:01;;;;;;;10.33;8.87;;;4.70;99.90;;;;;;5021988;28;20466;-72
2021/01/06 06:31:30;;;;;;;10.93;8.10;;;4.80;99.90;;;;;;5033762;28;20475;-72
2021/01/06 06:34:08;;;;;;;9.83;8.23;;;4.80;99.90;;;;;;5033813;28;20429;-72
2021/01/06 06:36:41;;;;;;;11.00;8.63;;;4.80;99.90;;;;;;5033525;28;21245;-72
2021/01/06 06:39:24;;;;;;;12.37;8.47;;;4.70;99.90;;;;;;5033549;28;20441;-72
2021/01/06 06:41:51;;;;;;;12.00;9.03;;;4.70;99.90;;;;;;5033515;28;20467;-72
2021/01/06 06:44:32;;;;;;;11.30;8.60;;;4.60;99.90;;;;;;5033399;28;20404;-73
2021/01/06 06:47:08;;;;;;;11.47;9.00;;;4.60;99.90;;;;;;5032154;28;20519;-73
2021/01/06 06:49:47;;;;;;;12.57;10.83;;;4.60;99.90;;;;;;5033267;28;20409;-72
2021/01/06 06:52:20;;;;;;;14.13;10.13;;;4.70;99.90;;;;;;5033260;28;20485;-73
2021/01/06 06:55:10;;;;;;;14.87;10.57;;;4.70;99.90;;;;;;5033120;28;20413;-72
2021/01/06 06:57:42;;;;;;;15.70;11.10;;;4.70;99.90;;;;;;5032666;28;20896;-72
2021/01/06 07:00:21;;;;;;;14.43;10.53;;;4.60;99.90;;;;;;5032487;28;20412;-72
2021/01/06 07:03:00;;;;;;;12.73;10.10;;;4.70;99.90;;;;;;5032204;28;20524;-72
2021/01/06 07:05:44;;;;;;;13.00;10.70;;;4.60;99.90;;;;;;5032547;28;20429;-72
2021/01/06 07:08:23;;;;;;;13.00;10.40;;;4.60;99.90;;;;;;5033208;28;20416;-71
2021/01/06 07:11:10;;;;;;;17.07;12.10;;;4.70;99.90;;;;;;5031554;28;20470;-72
2021/01/06 07:13:36;;;;;;;15.67;12.57;;;4.60;99.90;;;;;;5033612;28;20519;-72
2021/01/06 07:16:13;;;;;;;17.73;13.47;;;4.60;99.90;;;;;;5032926;28;20428;-72
2021/01/06 07:18:46;;;;;;;19.60;12.40;;;4.50;99.90;;;;;;5033147;28;20777;-72
2021/01/06 07:21:12;;;;;;;18.83;12.90;;;4.50;99.90;;;;;;5032983;28;20554;-72
2021/01/06 07:23:47;;;;;;;19.70;14.53;;;4.50;99.90;;;;;;5033243;28;20860;-72
2021/01/06 07:26:19;;;;;;;17.57;14.23;;;4.50;99.90;;;;;;5033628;28;20189;-72
2021/01/06 07:28:45;;;;;;;16.57;11.80;;;4.60;99.90;;;;;;5038808;28;20405;-72
2021/01/06 07:31:19;;;;;;;18.93;11.77;;;4.60;99.90;;;;;;5038188;28;20412;-71
2021/01/06 07:33:52;;;;;;;18.20;11.77;;;4.50;99.90;;;;;;5033512;28;20452;-72
2021/01/06 07:36:47;;;;;;;19.20;12.30;;;4.50;99.90;;;;;;5040598;28;20444;-72
2021/01/06 07:39:26;;;;;;;15.70;11.70;;;4.60;99.90;;;;;;5039688;28;20770;-72
2021/01/06 07:41:52;;;;;;;14.87;11.10;;;4.60;99.90;;;;;;5032874;28;20471;-71
2021/01/06 07:44:32;;;;;;;17.90;11.43;;;4.70;99.90;;;;;;5032811;28;20474;-72
2021/01/06 07:47:00;;;;;;;17.63;13.00;;;4.70;99.90;;;;;;5032603;28;20189;-72
2021/01/06 07:49:48;;;;;;;19.73;13.40;;;4.70;99.90;;;;;;5032639;28;20492;-72
2021/01/06 07:52:36;;;;;;;20.27;13.03;;;4.80;99.90;;;;;;5032559;28;20432;-72
2021/01/06 07:55:16;;;;;;;16.40;11.83;;;4.60;99.90;;;;;;5033099;28;20405;-71
2021/01/06 07:57:54;;;;;;;20.90;14.07;;;4.50;99.90;;;;;;5033099;28;20415;-71
2021/01/06 08:00:28;;;;;;;20.53;13.90;;;4.30;99.90;;;;;;5033001;28;20464;-71
2021/01/06 08:03:05;;;;;;;20.77;14.17;;;4.30;99.90;;;;;;5033134;28;20899;-71
2021/01/06 08:05:33;;;;;;;21.27;15.07;;;4.30;99.90;;;;;;5032494;28;20504;-71
2021/01/06 08:08:06;;;;;;;26.10;14.57;;;4.20;99.90;;;;;;5032880;28;20400;-72
2021/01/06 08:10:34;;;;;;;23.57;15.60;;;4.20;99.90;;;;;;5033665;28;20414;-71
2021/01/06 08:13:19;;;;;;;26.23;16.57;;;4.30;99.90;;;;;;5036536;28;20446;-72
2021/01/06 08:15:48;;;;;;;30.23;17.20;;;4.40;99.90;;;;;;5035783;28;20438;-71
2021/01/06 08:19:04;;;;;;;26.80;16.03;;;4.40;99.90;;;;;;5035586;28;20449;-72
2021/01/06 08:21:50;;;;;;;25.17;16.60;;;4.40;99.90;;;;;;4994810;28;20892;-72
2021/01/06 08:24:22;;;;;;;30.77;16.40;;;4.20;99.90;;;;;;4994081;28;20449;-71
2021/01/06 08:26:50;;;;;;;25.13;17.30;;;4.20;99.90;;;;;;4994046;28;20808;-72
2021/01/06 08:29:29;;;;;;;30.70;17.00;;;4.30;99.90;;;;;;4993994;28;20497;-71
2021/01/06 08:31:59;;;;;;;26.90;16.30;;;4.30;99.90;;;;;;4993963;28;20607;-71
2021/01/06 08:34:31;;;;;;;27.97;16.00;;;4.20;99.90;;;;;;4994862;28;20495;-71
2021/01/06 08:37:04;;;;;;;27.20;16.37;;;4.10;99.90;;;;;;4985863;28;20465;-71
2021/01/06 08:39:35;;;;;;;26.50;16.97;;;4.00;99.90;;;;;;4974176;28;20779;-72
2021/01/06 08:42:21;;;;;;;30.20;18.77;;;4.10;99.90;;;;;;4974751;28;20500;-71
2021/01/06 08:45:08;;;;;;;26.20;17.70;;;4.10;99.90;;;;;;4974488;28;20409;-73
2021/01/06 08:47:38;;;;;;;28.33;17.10;;;4.20;99.90;;;;;;4974258;28;20479;-72
2021/01/06 08:50:16;;;;;;;26.80;17.03;;;4.20;99.90;;;;;;4973736;28;20440;-72
2021/01/06 08:52:48;;;;;;;25.60;16.90;;;4.10;99.90;;;;;;4981777;28;20421;-72
2021/01/06 08:55:31;;;;;;;24.37;16.40;;;4.20;99.90;;;;;;4981771;28;20446;-72
2021/01/06 08:58:11;;;;;;;26.30;17.50;;;4.20;99.90;;;;;;5038694;28;20500;-72
2021/01/06 09:00:45;;;;;;;24.87;17.20;;;4.30;99.90;;;;;;5047030;28;20465;-72
2021/01/06 09:03:22;;;;;;;28.03;17.30;;;4.40;99.90;;;;;;5032375;28;20431;-71
2021/01/06 09:05:51;;;;;;;24.73;14.97;;;4.50;99.90;;;;;;5034530;28;20432;-72
2021/01/06 09:08:19;;;;;;;26.10;17.20;;;4.40;99.90;;;;;;5035151;28;20493;-71
2021/01/06 09:10:56;;;;;;;27.90;16.47;;;4.40;99.90;;;;;;5034547;28;20444;-72
2021/01/06 09:13:38;;;;;;;25.17;16.00;;;4.50;99.90;;;;;;5034896;28;20440;-72
2021/01/06 09:16:16;;;;;;;29.23;16.83;;;4.50;99.90;;;;;;5034544;28;20527;-72
2021/01/06 09:18:54;;;;;;;25.50;16.23;;;4.60;99.90;;;;;;5031933;28;20409;-72
2021/01/06 09:21:31;;;;;;;26.27;14.97;;;4.60;99.90;;;;;;5018989;28;20456;-72
2021/01/06 09:24:06;;;;;;;20.87;14.30;;;4.60;99.90;;;;;;5035438;28;20463;-72
2021/01/06 09:26:33;;;;;;;23.93;15.03;;;4.50;99.90;;;;;;5041514;28;20437;-72
2021/01/06 09:29:07;;;;;;;21.37;13.97;;;4.40;99.90;;;;;;5035166;28;20409;-72
2021/01/06 09:31:49;;;;;;;16.93;12.13;;;4.40;99.90;;;;;;5034778;28;20764;-72
2021/01/06 09:34:18;;;;;;;16.67;11.67;;;4.40;99.90;;;;;;5034111;28;20439;-72
2021/01/06 09:36:45;;;;;;;18.40;12.60;;;4.30;99.90;;;;;;5029975;28;20805;-72
2021/01/06 09:39:17;;;;;;;17.57;11.80;;;4.30;99.90;;;;;;5029092;28;20420;-72
2021/01/06 09:41:44;;;;;;;17.77;11.30;;;4.40;99.90;;;;;;5033807;28;20594;-72
2021/01/06 09:44:10;;;;;;;17.90;11.27;;;4.50;99.90;;;;;;5034178;28;20499;-72
2021/01/06 09:46:56;;;;;;;15.57;10.63;;;4.50;99.90;;;;;;5034182;28;20436;-72
2021/01/06 09:49:27;;;;;;;15.70;10.83;;;4.50;99.90;;;;;;5034108;28;20424;-72
2021/01/06 09:51:55;;;;;;;17.93;12.60;;;4.60;99.90;;;;;;5033653;28;20456;-72
2021/01/06 09:54:22;;;;;;;16.57;11.83;;;4.70;99.90;;;;;;5031935;28;20914;-72
2021/01/06 09:56:48;;;;;;;19.83;12.40;;;4.70;99.90;;;;;;5033300;28;20513;-72
2021/01/06 09:59:26;;;;;;;20.13;13.17;;;4.70;99.90;;;;;;5033421;28;20456;-73
2021/01/06 10:01:52;;;;;;;23.10;13.90;;;4.60;99.90;;;;;;5033094;28;20537;-72
2021/01/06 10:04:22;;;;;;;19.73;12.20;;;4.50;99.90;;;;;;5031195;28;20412;-71
2021/01/06 10:07:24;;;;;;;22.80;15.00;;;4.40;99.90;;;;;;5031968;28;20205;-71
2021/01/06 10:10:01;;;;;;;21.97;14.30;;;4.40;99.90;;;;;;5033193;28;20418;-72
2021/01/06 10:13:08;;;;;;;22.97;14.70;;;4.50;99.90;;;;;;5033093;28;20448;-73
2021/01/06 10:15:56;;;;;;;25.47;15.53;;;4.50;99.90;;;;;;5033676;28;20438;-72
2021/01/06 10:18:42;;;;;;;26.50;15.37;;;4.50;99.90;;;;;;5032961;28;20431;-72
2021/01/06 10:21:35;;;;;;;26.77;16.50;;;4.50;99.90;;;;;;5033771;28;20457;-72
2021/01/06 10:24:35;;;;;;;26.87;16.27;;;4.60;99.90;;;;;;5033605;28;20405;-73
2021/01/06 10:27:29;;;;;;;24.60;16.23;;;4.50;99.90;;;;;;5013615;28;20453;-74
2021/01/06 10:29:57;;;;;;;24.83;15.30;;;4.50;99.90;;;;;;5011885;28;20925;-73
2021/01/06 10:33:02;;;;;;;22.57;13.93;;;4.50;99.90;;;;;;5013262;28;20472;-73
2021/01/06 10:35:36;;;;;;;23.20;15.40;;;4.20;99.90;;;;;;5013297;28;20439;-73
2021/01/06 10:38:27;;;;;;;24.80;14.63;;;4.10;99.90;;;;;;5031350;28;20427;-72
2021/01/06 10:41:08;;;;;;;20.60;14.00;;;4.10;99.90;;;;;;5031454;28;20462;-73
2021/01/06 10:43:43;;;;;;;21.23;14.10;;;4.20;99.90;;;;;;5013392;28;20422;-72
2021/01/06 10:46:46;;;;;;;19.60;12.80;;;4.20;99.90;;;;;;5013461;28;20769;-73
2021/01/06 10:49:19;;;;;;;17.13;12.00;;;4.10;99.90;;;;;;5013129;28;20482;-73
2021/01/06 10:51:50;;;;;;;19.73;13.40;;;4.20;99.90;;;;;;5026859;28;20907;-73
2021/01/06 10:54:29;;;;;;;20.77;13.40;;;4.10;99.90;;;;;;5033013;28;20522;-73
2021/01/06 10:56:57;;;;;;;21.90;14.47;;;4.10;99.90;;;;;;5032950;28;20437;-73
2021/01/06 10:59:22;;;;;;;21.20;13.57;;;4.00;99.90;;;;;;5031948;28;20421;-73
2021/01/06 11:01:53;;;;;;;18.87;13.80;;;3.90;99.90;;;;;;5033281;28;20561;-73
2021/01/06 11:04:53;;;;;;;19.87;14.20;;;4.00;99.90;;;;;;5034647;28;20222;-73
2021/01/06 11:07:38;;;;;;;19.90;12.30;;;3.90;99.90;;;;;;5045799;28;20434;-73
2021/01/06 11:10:32;;;;;;;20.77;13.67;;;3.90;99.90;;;;;;5037912;28;20436;-73
2021/01/06 11:13:19;;;;;;;19.17;13.70;;;3.80;99.90;;;;;;5023925;28;20383;-72
2021/01/06 11:16:00;;;;;;;21.43;12.40;;;4.00;99.90;;;;;;5023299;28;20423;-72
2021/01/06 11:18:28;;;;;;;20.93;13.23;;;4.00;99.90;;;;;;5031160;28;20472;-72
2021/01/06 11:21:12;;;;;;;19.90;12.40;;;3.90;99.90;;;;;;5033488;28;20472;-72
2021/01/06 11:23:49;;;;;;;20.80;12.77;;;3.80;99.90;;;;;;5029076;28;20421;-72
2021/01/06 11:26:20;;;;;;;21.53;12.70;;;3.70;99.90;;;;;;5012980;28;20425;-72
2021/01/06 11:29:01;;;;;;;21.00;13.73;;;3.70;99.90;;;;;;5013142;28;20406;-75
2021/01/06 11:31:30;;;;;;;18.10;12.83;;;3.70;99.90;;;;;;5012632;28;20427;-72
2021/01/06 11:34:21;;;;;;;18.53;13.47;;;3.60;99.90;;;;;;5012732;28;20426;-72
2021/01/06 11:36:53;;;;;;;21.57;13.43;;;3.50;99.90;;;;;;5020211;28;20904;-73
2021/01/06 11:39:27;;;;;;;20.83;13.37;;;3.50;99.90;;;;;;5032751;28;20410;-73
2021/01/06 11:42:00;;;;;;;18.47;11.80;;;3.50;99.90;;;;;;5032355;28;20809;-72
2021/01/06 11:45:04;;;;;;;21.40;13.07;;;3.50;99.90;;;;;;5032585;28;20409;-72
2021/01/06 11:47:34;;;;;;;17.83;12.57;;;3.60;99.90;;;;;;5035894;28;20899;-72
2021/01/06 11:50:28;;;;;;;17.80;12.87;;;3.50;99.90;;;;;;5036926;28;20402;-73
2021/01/06 11:53:36;;;;;;;21.07;13.83;;;3.50;99.90;;;;;;5016868;28;20422;-73
2021/01/06 11:56:16;;;;;;;18.77;12.50;;;3.60;99.90;;;;;;5004958;28;20438;-73
2021/01/06 11:59:00;;;;;;;20.10;13.43;;;3.60;99.90;;;;;;5015491;28;20453;-72
2021/01/06 12:02:05;;;;;;;20.10;13.30;;;3.60;99.90;;;;;;5013615;28;20489;-73
2021/01/06 12:04:59;;;;;;;22.93;14.07;;;3.70;99.90;;;;;;5013938;28;20441;-72
2021/01/06 12:07:35;;;;;;;21.23;14.00;;;3.80;99.90;;;;;;5015036;28;20427;-72
2021/01/06 12:10:22;;;;;;;22.30;14.93;;;3.90;99.90;;;;;;5015242;28;20476;-72
2021/01/06 12:13:18;;;;;;;18.63;12.93;;;3.90;99.90;;;;;;5015493;28;20422;-72
2021/01/06 12:16:01;;;;;;;20.23;12.83;;;4.00;99.90;;;;;;5018495;28;20457;-72
2021/01/06 12:18:35;;;;;;;17.10;13.13;;;3.90;99.90;;;;;;5022740;28;20395;-72
2021/01/06 12:21:02;;;;;;;22.40;14.90;;;3.80;99.90;;;;;;5005288;28;22270;-73
2021/01/06 12:23:39;;;;;;;20.67;13.50;;;3.70;99.90;;;;;;5009174;28;20514;-73
2021/01/06 12:26:25;;;;;;;23.03;15.03;;;3.80;99.90;;;;;;5011929;28;20441;-71
2021/01/06 12:28:56;;;;;;;23.70;14.60;;;3.90;99.90;;;;;;5030150;28;20429;-71
2021/01/06 12:31:40;;;;;;;22.23;14.70;;;3.80;99.90;;;;;;5030307;28;20429;-71
2021/01/06 12:34:14;;;;;;;21.83;14.40;;;3.90;99.90;;;;;;5032829;28;21186;-73
2021/01/06 12:36:59;;;;;;;19.00;12.13;;;3.90;99.90;;;;;;5032760;28;20447;-72
2021/01/06 12:39:29;;;;;;;19.83;12.57;;;3.80;99.90;;;;;;5036677;28;20776;-72
2021/01/06 12:42:04;;;;;;;17.83;12.50;;;3.70;99.90;;;;;;5070215;28;20556;-71
2021/01/06 12:44:35;;;;;;;19.63;13.63;;;3.70;99.90;;;;;;5045572;28;20409;-72
2021/01/06 12:47:08;;;;;;;17.80;11.97;;;3.70;99.90;;;;;;5036898;28;20433;-71
2021/01/06 12:49:41;;;;;;;18.37;12.20;;;3.80;99.90;;;;;;5034235;28;20499;-71
2021/01/06 12:52:26;;;;;;;18.93;13.10;;;3.80;99.90;;;;;;5035408;28;20979;-71
2021/01/06 12:55:03;;;;;;;20.03;13.17;;;4.00;99.90;;;;;;5006552;28;20453;-73
2021/01/06 12:57:41;;;;;;;17.70;12.33;;;4.10;99.90;;;;;;5021166;28;20450;-73
2021/01/06 13:00:35;;;;;;;16.47;12.70;;;4.10;99.90;;;;;;5026170;28;20414;-72
2021/01/06 13:03:23;;;;;;;15.60;11.77;;;4.20;99.90;;;;;;5015021;28;20417;-72
2021/01/06 13:05:53;;;;;;;17.70;12.60;;;4.20;99.90;;;;;;5014509;28;20424;-71
2021/01/06 13:08:53;;;;;;;16.00;11.20;;;4.30;99.90;;;;;;5015126;28;20499;-72
2021/01/06 13:11:27;;;;;;;17.33;11.80;;;4.30;99.90;;;;;;4979221;28;20458;-72
2021/01/06 13:14:04;;;;;;;17.97;13.07;;;4.30;99.90;;;;;;5015733;28;20411;-72
2021/01/06 13:16:37;;;;;;;12.93;10.53;;;4.20;99.90;;;;;;5031432;28;20423;-72
2021/01/06 13:19:05;;;;;;;18.63;13.60;;;4.20;99.90;;;;;;5018342;28;20409;-70
2021/01/06 13:21:40;;;;;;;21.00;13.63;;;4.00;99.90;;;;;;5034903;28;20961;-72
2021/01/06 13:24:14;;;;;;;19.20;13.20;;;3.90;99.90;;;;;;5035030;28;20416;-72
2021/01/06 13:26:52;;;;;;;29.27;17.23;;;3.80;99.90;;;;;;5035266;28;20802;-72
2021/01/06 13:29:17;;;;;;;22.97;14.10;;;3.70;99.90;;;;;;5035255;28;20421;-72